createdAt,value
2017-07-17T00:00:30.318Z,0
2017-07-17T00:01:39.169Z,0
2017-07-17T00:02:48.021Z,0
2017-07-17T00:03:57.026Z,0
2017-07-17T00:05:05.883Z,0
2017-07-17T00:06:15.103Z,0
2017-07-17T00:07:23.957Z,0
2017-07-17T00:08:32.808Z,0
2017-07-17T00:09:41.964Z,0
2017-07-17T00:10:50.818Z,0
2017-07-17T00:11:59.675Z,0
2017-07-17T00:13:08.525Z,0
2017-07-17T00:14:17.381Z,0
2017-07-17T00:15:26.386Z,0
2017-07-17T00:16:35.242Z,0
2017-07-17T00:17:44.100Z,0
2017-07-17T00:18:52.958Z,0
2017-07-17T00:20:01.811Z,0
2017-07-17T00:21:10.964Z,0
2017-07-17T00:22:19.818Z,0
2017-07-17T00:23:28.670Z,0
2017-07-17T00:24:37.525Z,0
2017-07-17T00:25:46.381Z,0
2017-07-17T00:26:55.386Z,0
2017-07-17T00:28:04.244Z,0
2017-07-17T00:29:13.100Z,0
2017-07-17T00:30:21.955Z,0
2017-07-17T00:31:31.144Z,0
2017-07-17T00:32:40.150Z,0
2017-07-17T00:33:49.001Z,0
2017-07-17T00:34:58.189Z,0
2017-07-17T00:36:07.043Z,0
2017-07-17T00:37:15.896Z,0
2017-07-17T00:38:24.900Z,0
2017-07-17T00:39:33.757Z,0
2017-07-17T00:40:42.611Z,0
2017-07-17T00:41:51.465Z,0
2017-07-17T00:43:00.318Z,0
2017-07-17T00:44:09.175Z,0
2017-07-17T00:45:18.028Z,0
2017-07-17T00:46:26.884Z,0
2017-07-17T00:47:35.739Z,0
2017-07-17T00:48:44.593Z,0
2017-07-17T00:49:53.447Z,0
2017-07-17T00:51:02.300Z,0
2017-07-17T00:52:11.153Z,0
2017-07-17T00:53:20.010Z,0
2017-07-17T00:54:28.864Z,0
2017-07-17T00:55:37.717Z,0
2017-07-17T00:56:46.573Z,0
2017-07-17T00:57:55.431Z,0
2017-07-17T00:59:04.284Z,0
2017-07-17T01:00:13.136Z,0
2017-07-17T01:01:22.290Z,0
2017-07-17T01:02:31.144Z,0
2017-07-17T01:03:39.998Z,0
2017-07-17T01:04:48.850Z,0
2017-07-17T01:05:57.707Z,0
2017-07-17T01:07:06.606Z,0
2017-07-17T01:08:15.461Z,0
2017-07-17T01:09:24.315Z,0
2017-07-17T01:10:33.170Z,0
2017-07-17T01:11:42.027Z,0
2017-07-17T01:12:50.882Z,0
2017-07-17T01:13:59.739Z,0
2017-07-17T01:15:08.596Z,0
2017-07-17T01:16:17.446Z,0
2017-07-17T01:17:26.301Z,0
2017-07-17T01:18:35.306Z,0
2017-07-17T01:19:44.161Z,0
2017-07-17T01:20:53.016Z,0
2017-07-17T01:22:01.871Z,0
2017-07-17T01:23:10.722Z,0
2017-07-17T01:24:19.728Z,0
2017-07-17T01:25:28.581Z,0
2017-07-17T01:26:37.437Z,0
2017-07-17T01:27:46.292Z,0
2017-07-17T01:28:55.145Z,0
2017-07-17T01:30:04.200Z,0
2017-07-17T01:31:13.052Z,0
2017-07-17T01:32:21.912Z,0
2017-07-17T01:33:30.767Z,0
2017-07-17T01:34:39.620Z,0
2017-07-17T01:35:48.676Z,0
2017-07-17T01:36:57.531Z,0
2017-07-17T01:38:06.387Z,0
2017-07-17T01:39:15.244Z,0
2017-07-17T01:40:24.098Z,0
2017-07-17T01:41:33.005Z,0
2017-07-17T01:42:41.860Z,0
2017-07-17T01:43:50.714Z,0
2017-07-17T01:44:59.569Z,0
2017-07-17T01:46:08.424Z,0
2017-07-17T01:47:17.379Z,0
2017-07-17T01:48:26.236Z,0
2017-07-17T01:49:35.091Z,0
2017-07-17T01:50:43.945Z,0
2017-07-17T01:51:52.798Z,0
2017-07-17T01:53:01.952Z,0
2017-07-17T01:54:10.809Z,0
2017-07-17T01:55:19.664Z,0
2017-07-17T01:56:28.519Z,0
2017-07-17T01:57:37.373Z,0
2017-07-17T01:58:46.278Z,0
2017-07-17T01:59:55.136Z,0
2017-07-17T02:01:03.990Z,0
2017-07-17T02:02:12.848Z,0
2017-07-17T02:03:21.701Z,0
2017-07-17T02:04:30.603Z,0
2017-07-17T02:05:39.459Z,0
2017-07-17T02:06:48.313Z,0
2017-07-17T02:07:57.168Z,0
2017-07-17T02:09:06.024Z,0
2017-07-17T02:10:15.175Z,0
2017-07-17T02:11:24.031Z,0
2017-07-17T02:12:32.887Z,0
2017-07-17T02:13:41.739Z,0
2017-07-17T02:14:50.598Z,0
2017-07-17T02:15:59.455Z,0
2017-07-17T02:17:08.306Z,0
2017-07-17T02:18:17.162Z,0
2017-07-17T02:19:26.019Z,0
2017-07-17T02:20:34.873Z,0
2017-07-17T02:21:43.825Z,0
2017-07-17T02:22:52.678Z,0
2017-07-17T02:24:01.561Z,0
2017-07-17T02:25:10.389Z,0
2017-07-17T02:26:19.243Z,0
2017-07-17T02:27:28.146Z,0
2017-07-17T02:28:37.002Z,0
2017-07-17T02:29:45.859Z,0
2017-07-17T02:30:54.715Z,0
2017-07-17T02:32:03.572Z,0
2017-07-17T02:33:12.623Z,0
2017-07-17T02:34:21.481Z,0
2017-07-17T02:35:30.334Z,0
2017-07-17T02:36:39.188Z,0
2017-07-17T02:37:48.040Z,0
2017-07-17T02:38:57.142Z,0
2017-07-17T02:40:05.996Z,0
2017-07-17T02:41:14.849Z,0
2017-07-17T02:42:23.752Z,0
2017-07-17T02:43:32.606Z,0
2017-07-17T02:44:41.714Z,4
2017-07-17T02:45:50.565Z,4
2017-07-17T02:46:59.420Z,0
2017-07-17T02:48:08.272Z,0
2017-07-17T02:49:17.127Z,4
2017-07-17T02:50:26.130Z,4
2017-07-17T02:51:34.985Z,0
2017-07-17T02:52:43.839Z,4
2017-07-17T02:53:52.693Z,4
2017-07-17T02:55:01.552Z,4
2017-07-17T02:56:10.558Z,4
2017-07-17T02:57:19.410Z,8
2017-07-17T02:58:28.261Z,4
2017-07-17T02:59:37.115Z,8
2017-07-17T03:00:45.968Z,12
2017-07-17T03:01:54.871Z,12
2017-07-17T03:03:03.726Z,16
2017-07-17T03:04:12.580Z,16
2017-07-17T03:05:21.434Z,20
2017-07-17T03:06:30.288Z,20
2017-07-17T03:07:39.543Z,24
2017-07-17T03:08:48.396Z,28
2017-07-17T03:09:57.249Z,28
2017-07-17T03:11:06.104Z,28
2017-07-17T03:12:14.959Z,36
2017-07-17T03:13:23.914Z,36
2017-07-17T03:14:32.766Z,44
2017-07-17T03:15:41.619Z,44
2017-07-17T03:16:50.474Z,52
2017-07-17T03:17:59.327Z,56
2017-07-17T03:19:08.228Z,64
2017-07-17T03:20:17.087Z,68
2017-07-17T03:21:25.943Z,72
2017-07-17T03:22:34.798Z,80
2017-07-17T03:23:43.649Z,88
2017-07-17T03:24:52.501Z,92
2017-07-17T03:26:01.354Z,104
2017-07-17T03:27:10.207Z,108
2017-07-17T03:28:19.059Z,116
2017-07-17T03:29:27.915Z,124
2017-07-17T03:30:36.868Z,132
2017-07-17T03:31:45.724Z,140
2017-07-17T03:32:54.600Z,148
2017-07-17T03:34:03.430Z,156
2017-07-17T03:35:12.287Z,168
2017-07-17T03:36:21.292Z,180
2017-07-17T03:37:30.144Z,188
2017-07-17T03:38:38.999Z,200
2017-07-17T03:39:47.850Z,208
2017-07-17T03:40:56.704Z,216
2017-07-17T03:42:05.705Z,228
2017-07-17T03:43:14.556Z,240
2017-07-17T03:44:23.413Z,252
2017-07-17T03:45:32.266Z,264
2017-07-17T03:46:41.120Z,272
2017-07-17T03:47:50.074Z,276
2017-07-17T03:48:58.926Z,292
2017-07-17T03:50:07.779Z,308
2017-07-17T03:51:16.632Z,324
2017-07-17T03:52:25.487Z,336
2017-07-17T03:53:34.390Z,344
2017-07-17T03:54:43.242Z,356
2017-07-17T03:55:52.097Z,372
2017-07-17T03:57:00.951Z,380
2017-07-17T03:58:09.805Z,388
2017-07-17T03:59:18.958Z,392
2017-07-17T04:00:27.811Z,400
2017-07-17T04:01:36.665Z,412
2017-07-17T04:02:45.518Z,420
2017-07-17T04:03:54.369Z,436
2017-07-17T04:05:03.274Z,448
2017-07-17T04:06:12.129Z,464
2017-07-17T04:07:20.984Z,472
2017-07-17T04:08:29.838Z,468
2017-07-17T04:09:38.693Z,480
2017-07-17T04:10:47.543Z,488
2017-07-17T04:11:56.398Z,496
2017-07-17T04:13:05.255Z,512
2017-07-17T04:14:14.110Z,520
2017-07-17T04:15:22.961Z,532
2017-07-17T04:16:32.065Z,544
2017-07-17T04:17:40.921Z,556
2017-07-17T04:18:49.778Z,568
2017-07-17T04:19:58.629Z,576
2017-07-17T04:21:07.483Z,584
2017-07-17T04:22:16.385Z,604
2017-07-17T04:23:25.241Z,632
2017-07-17T04:24:34.097Z,660
2017-07-17T04:25:42.951Z,684
2017-07-17T04:26:51.807Z,688
2017-07-17T04:28:00.657Z,688
2017-07-17T04:29:09.509Z,680
2017-07-17T04:30:18.361Z,676
2017-07-17T04:31:27.215Z,668
2017-07-17T04:32:36.069Z,660
2017-07-17T04:33:45.073Z,660
2017-07-17T04:34:53.929Z,656
2017-07-17T04:36:02.782Z,660
2017-07-17T04:37:11.638Z,664
2017-07-17T04:38:20.489Z,668
2017-07-17T04:39:29.494Z,672
2017-07-17T04:40:38.347Z,676
2017-07-17T04:41:47.201Z,684
2017-07-17T04:42:56.055Z,692
2017-07-17T04:44:04.909Z,700
2017-07-17T04:45:13.913Z,716
2017-07-17T04:46:22.767Z,732
2017-07-17T04:47:31.620Z,748
2017-07-17T04:48:40.476Z,752
2017-07-17T04:49:49.327Z,744
2017-07-17T04:50:58.233Z,740
2017-07-17T04:52:07.087Z,736
2017-07-17T04:53:15.943Z,740
2017-07-17T04:54:24.794Z,744
2017-07-17T04:55:33.647Z,752
2017-07-17T04:56:42.597Z,752
2017-07-17T04:57:51.452Z,756
2017-07-17T04:59:00.307Z,756
2017-07-17T05:00:09.167Z,756
2017-07-17T05:01:18.094Z,764
2017-07-17T05:02:27.023Z,764
2017-07-17T05:03:35.877Z,772
2017-07-17T05:04:44.731Z,780
2017-07-17T05:05:53.585Z,788
2017-07-17T05:07:02.437Z,796
2017-07-17T05:08:11.442Z,804
2017-07-17T05:09:20.296Z,804
2017-07-17T05:10:29.151Z,804
2017-07-17T05:11:38.007Z,800
2017-07-17T05:12:46.859Z,808
2017-07-17T05:13:55.912Z,808
2017-07-17T05:15:04.766Z,816
2017-07-17T05:16:13.961Z,824
2017-07-17T05:17:22.816Z,828
2017-07-17T05:18:31.671Z,832
2017-07-17T05:19:40.776Z,836
2017-07-17T05:20:49.964Z,836
2017-07-17T05:21:58.820Z,844
2017-07-17T05:23:07.677Z,844
2017-07-17T05:24:16.529Z,852
2017-07-17T05:25:25.539Z,860
2017-07-17T05:26:34.391Z,872
2017-07-17T05:27:43.243Z,876
2017-07-17T05:28:52.100Z,888
2017-07-17T05:30:00.956Z,900
2017-07-17T05:31:09.961Z,908
2017-07-17T05:32:18.813Z,920
2017-07-17T05:33:27.666Z,932
2017-07-17T05:34:36.523Z,940
2017-07-17T05:35:45.377Z,944
2017-07-17T05:36:54.533Z,936
2017-07-17T05:38:03.389Z,936
2017-07-17T05:39:12.241Z,932
2017-07-17T05:40:21.095Z,936
2017-07-17T05:41:29.951Z,940
2017-07-17T05:42:38.906Z,948
2017-07-17T05:43:47.762Z,948
2017-07-17T05:44:56.616Z,952
2017-07-17T05:46:05.472Z,952
2017-07-17T05:47:14.328Z,968
2017-07-17T05:48:23.184Z,996
2017-07-17T05:49:32.038Z,1012
2017-07-17T05:50:40.891Z,1004
2017-07-17T05:51:49.747Z,964
2017-07-17T05:52:58.603Z,912
2017-07-17T05:54:07.455Z,988
2017-07-17T05:55:16.312Z,932
2017-07-17T05:56:25.163Z,972
2017-07-17T05:57:34.020Z,984
2017-07-17T05:58:42.877Z,916
2017-07-17T05:59:51.732Z,952
2017-07-17T06:01:00.586Z,880
2017-07-17T06:02:09.775Z,956
2017-07-17T06:03:18.627Z,928
2017-07-17T06:04:27.483Z,868
2017-07-17T06:05:36.337Z,944
2017-07-17T06:06:45.190Z,976
2017-07-17T06:07:54.069Z,888
2017-07-17T06:09:02.925Z,896
2017-07-17T06:10:11.778Z,880
2017-07-17T06:11:20.634Z,892
2017-07-17T06:12:29.489Z,1192
2017-07-17T06:13:38.343Z,1564
2017-07-17T06:14:47.197Z,1656
2017-07-17T06:15:56.049Z,1660
2017-07-17T06:17:04.912Z,1548
2017-07-17T06:18:13.767Z,1196
2017-07-17T06:19:22.625Z,1272
2017-07-17T06:20:31.479Z,1392
2017-07-17T06:21:40.334Z,1232
2017-07-17T06:22:49.194Z,1520
2017-07-17T06:23:58.045Z,1100
2017-07-17T06:25:06.899Z,1048
2017-07-17T06:26:15.753Z,1476
2017-07-17T06:27:24.609Z,2556
2017-07-17T06:28:33.462Z,2560
2017-07-17T06:29:42.654Z,2072
2017-07-17T06:30:51.661Z,2860
2017-07-17T06:32:00.518Z,3780
2017-07-17T06:33:09.374Z,3260
2017-07-17T06:34:18.229Z,2924
2017-07-17T06:35:27.082Z,2660
2017-07-17T06:36:35.986Z,2376
2017-07-17T06:37:44.850Z,2208
2017-07-17T06:38:53.708Z,2224
2017-07-17T06:40:02.626Z,2832
2017-07-17T06:41:11.492Z,2892
2017-07-17T06:42:20.597Z,3040
2017-07-17T06:43:29.472Z,2384
2017-07-17T06:44:38.327Z,2224
2017-07-17T06:45:47.182Z,2156
2017-07-17T06:46:56.055Z,2004
2017-07-17T06:48:05.011Z,2032
2017-07-17T06:49:13.866Z,2108
2017-07-17T06:50:22.720Z,2824
2017-07-17T06:51:31.576Z,2860
2017-07-17T06:52:40.429Z,3172
2017-07-17T06:53:49.435Z,4088
2017-07-17T06:54:58.292Z,4496
2017-07-17T06:56:07.147Z,4088
2017-07-17T06:57:16.002Z,3244
2017-07-17T06:58:24.856Z,3196
2017-07-17T06:59:33.712Z,3620
2017-07-17T07:00:42.570Z,3840
2017-07-17T07:01:51.434Z,3580
2017-07-17T07:03:00.302Z,3556
2017-07-17T07:04:09.157Z,3040
2017-07-17T07:05:18.061Z,2932
2017-07-17T07:06:26.915Z,2532
2017-07-17T07:07:35.775Z,2636
2017-07-17T07:08:44.631Z,2616
2017-07-17T07:09:53.487Z,2612
2017-07-17T07:11:02.494Z,2236
2017-07-17T07:12:11.351Z,3020
2017-07-17T07:13:20.209Z,2840
2017-07-17T07:14:29.066Z,2548
2017-07-17T07:15:37.924Z,1760
2017-07-17T07:16:46.778Z,1260
2017-07-17T07:17:55.636Z,1248
2017-07-17T07:19:04.496Z,1340
2017-07-17T07:20:13.354Z,1228
2017-07-17T07:21:22.210Z,1256
2017-07-17T07:22:31.217Z,1880
2017-07-17T07:23:40.074Z,1724
2017-07-17T07:24:48.930Z,1416
2017-07-17T07:25:57.787Z,1380
2017-07-17T07:27:06.643Z,1712
2017-07-17T07:28:15.647Z,1992
2017-07-17T07:29:24.510Z,2268
2017-07-17T07:30:33.370Z,2700
2017-07-17T07:31:42.223Z,2488
2017-07-17T07:32:51.078Z,2324
2017-07-17T07:34:00.287Z,2732
2017-07-17T07:35:09.144Z,3080
2017-07-17T07:36:18.002Z,2500
2017-07-17T07:37:26.858Z,1908
2017-07-17T07:38:35.717Z,1916
2017-07-17T07:39:44.876Z,2096
2017-07-17T07:40:53.733Z,2756
2017-07-17T07:42:02.593Z,2868
2017-07-17T07:43:11.783Z,3088
2017-07-17T07:44:20.637Z,2752
2017-07-17T07:45:29.544Z,2724
2017-07-17T07:46:38.401Z,3400
2017-07-17T07:47:47.257Z,3980
2017-07-17T07:48:56.116Z,4136
2017-07-17T07:50:04.998Z,3768
2017-07-17T07:51:14.075Z,3440
2017-07-17T07:52:22.934Z,3336
2017-07-17T07:53:31.803Z,3032
2017-07-17T07:54:40.671Z,3464
2017-07-17T07:55:49.542Z,3972
2017-07-17T07:56:58.562Z,3708
2017-07-17T07:58:07.436Z,2720
2017-07-17T07:59:16.299Z,2732
2017-07-17T08:00:25.156Z,3008
2017-07-17T08:01:34.017Z,2968
2017-07-17T08:02:42.974Z,2820
2017-07-17T08:03:51.851Z,2652
2017-07-17T08:05:00.707Z,2428
2017-07-17T08:06:09.565Z,2608
2017-07-17T08:07:18.424Z,2436
2017-07-17T08:08:27.484Z,2940
2017-07-17T08:09:36.380Z,3280
2017-07-17T08:10:45.244Z,3680
2017-07-17T08:11:54.103Z,3356
2017-07-17T08:13:02.974Z,2600
2017-07-17T08:14:12.085Z,2528
2017-07-17T08:15:20.950Z,3008
2017-07-17T08:16:29.810Z,3068
2017-07-17T08:17:38.720Z,3180
2017-07-17T08:18:47.680Z,2336
2017-07-17T08:19:56.985Z,2756
2017-07-17T08:21:05.847Z,2928
2017-07-17T08:22:14.721Z,2400
2017-07-17T08:23:23.580Z,2816
2017-07-17T08:24:32.438Z,3620
2017-07-17T08:25:41.450Z,3996
2017-07-17T08:26:50.382Z,4376
2017-07-17T08:27:59.250Z,4504
2017-07-17T08:29:08.126Z,4728
2017-07-17T08:30:16.985Z,4908
2017-07-17T08:31:25.998Z,3840
2017-07-17T08:32:34.863Z,3816
2017-07-17T08:33:43.720Z,3848
2017-07-17T08:34:52.580Z,3552
2017-07-17T08:36:01.441Z,2484
2017-07-17T08:37:10.464Z,1644
2017-07-17T08:38:19.331Z,1452
2017-07-17T08:39:28.196Z,1420
2017-07-17T08:40:37.057Z,1436
2017-07-17T08:41:45.915Z,1456
2017-07-17T08:42:55.074Z,1672
2017-07-17T08:44:03.935Z,1868
2017-07-17T08:45:12.793Z,2044
2017-07-17T08:46:21.651Z,2172
2017-07-17T08:47:30.511Z,2344
2017-07-17T08:48:39.520Z,2392
2017-07-17T08:49:48.377Z,2360
2017-07-17T08:50:57.235Z,2428
2017-07-17T08:52:06.093Z,2192
2017-07-17T08:53:15.287Z,3016
2017-07-17T08:54:24.345Z,3980
2017-07-17T08:55:33.202Z,2952
2017-07-17T08:56:42.061Z,2268
2017-07-17T08:57:50.920Z,2384
2017-07-17T08:58:59.776Z,3316
2017-07-17T09:00:08.785Z,4816
2017-07-17T09:01:17.642Z,4668
2017-07-17T09:02:26.501Z,4184
2017-07-17T09:03:35.404Z,3868
2017-07-17T09:04:44.262Z,3252
2017-07-17T09:05:53.423Z,3076
2017-07-17T09:07:02.281Z,3612
2017-07-17T09:08:11.144Z,5044
2017-07-17T09:09:20.008Z,5060
2017-07-17T09:10:28.872Z,5084
2017-07-17T09:11:37.880Z,3640
2017-07-17T09:12:46.740Z,3020
2017-07-17T09:13:55.604Z,2756
2017-07-17T09:15:04.465Z,3072
2017-07-17T09:16:13.326Z,2404
2017-07-17T09:17:22.335Z,2236
2017-07-17T09:18:31.216Z,2200
2017-07-17T09:19:40.075Z,2204
2017-07-17T09:20:48.954Z,2204
2017-07-17T09:21:57.817Z,2232
2017-07-17T09:23:06.800Z,2188
2017-07-17T09:24:15.665Z,2748
2017-07-17T09:25:24.527Z,3296
2017-07-17T09:26:33.386Z,3660
2017-07-17T09:27:42.270Z,3944
2017-07-17T09:28:51.278Z,5464
2017-07-17T09:30:00.239Z,5112
2017-07-17T09:31:09.097Z,4668
2017-07-17T09:32:17.957Z,4264
2017-07-17T09:33:26.814Z,3760
2017-07-17T09:34:36.024Z,3244
2017-07-17T09:35:44.885Z,2952
2017-07-17T09:36:53.747Z,2908
2017-07-17T09:38:02.622Z,2652
2017-07-17T09:39:11.479Z,2416
2017-07-17T09:40:20.391Z,2308
2017-07-17T09:41:29.252Z,2276
2017-07-17T09:42:38.112Z,2456
2017-07-17T09:43:46.971Z,2496
2017-07-17T09:44:55.825Z,2476
2017-07-17T09:46:04.733Z,2852
2017-07-17T09:47:13.593Z,3748
2017-07-17T09:48:22.786Z,4244
2017-07-17T09:49:32.233Z,3604
2017-07-17T09:50:41.455Z,2556
2017-07-17T09:51:50.760Z,2192
2017-07-17T09:52:59.629Z,2152
2017-07-17T09:54:08.492Z,2588
2017-07-17T09:55:18.012Z,3212
2017-07-17T09:56:26.918Z,3448
2017-07-17T09:57:36.083Z,2996
2017-07-17T09:58:45.177Z,2532
2017-07-17T09:59:54.038Z,2148
2017-07-17T10:01:02.903Z,2300
2017-07-17T10:02:11.784Z,2772
2017-07-17T10:03:20.943Z,2532
2017-07-17T10:04:29.808Z,2128
2017-07-17T10:05:38.675Z,1972
2017-07-17T10:06:47.537Z,1996
2017-07-17T10:07:56.488Z,2088
2017-07-17T10:09:05.396Z,2380
2017-07-17T10:10:14.282Z,2644
2017-07-17T10:11:23.167Z,3328
2017-07-17T10:12:32.367Z,3612
2017-07-17T10:13:41.227Z,2856
2017-07-17T10:14:50.372Z,3096
2017-07-17T10:15:59.506Z,3692
2017-07-17T10:17:08.430Z,3808
2017-07-17T10:18:17.287Z,3944
2017-07-17T10:19:26.189Z,4248
2017-07-17T10:20:35.210Z,4124
2017-07-17T10:21:44.070Z,3628
2017-07-17T10:22:52.928Z,3048
2017-07-17T10:24:01.786Z,2508
2017-07-17T10:25:10.650Z,2400
2017-07-17T10:26:19.509Z,2504
2017-07-17T10:27:28.374Z,2924
2017-07-17T10:28:37.246Z,3280
2017-07-17T10:29:46.105Z,4008
2017-07-17T10:30:55.088Z,4968
2017-07-17T10:32:04.003Z,5480
2017-07-17T10:33:12.861Z,5252
2017-07-17T10:34:21.719Z,5380
2017-07-17T10:35:30.646Z,5776
2017-07-17T10:36:39.501Z,6252
2017-07-17T10:37:48.510Z,6440
2017-07-17T10:38:57.371Z,5364
2017-07-17T10:40:06.229Z,4824
2017-07-17T10:41:15.089Z,4132
2017-07-17T10:42:23.952Z,3968
2017-07-17T10:43:33.111Z,4864
2017-07-17T10:44:41.969Z,5740
2017-07-17T10:45:50.826Z,5580
2017-07-17T10:46:59.685Z,4052
2017-07-17T10:48:08.547Z,3132
2017-07-17T10:49:17.403Z,2780
2017-07-17T10:50:26.262Z,2700
2017-07-17T10:51:35.119Z,2732
2017-07-17T10:52:43.980Z,2800
2017-07-17T10:53:53.173Z,2928
2017-07-17T10:55:02.030Z,2944
2017-07-17T10:56:10.891Z,2872
2017-07-17T10:57:19.747Z,2872
2017-07-17T10:58:28.607Z,3052
2017-07-17T10:59:37.466Z,3344
2017-07-17T11:00:46.624Z,3464
2017-07-17T11:01:55.818Z,3696
2017-07-17T11:03:04.675Z,4052
2017-07-17T11:04:13.533Z,4516
2017-07-17T11:05:22.393Z,5272
2017-07-17T11:06:31.351Z,6992
2017-07-17T11:07:40.209Z,7548
2017-07-17T11:08:49.071Z,7032
2017-07-17T11:09:57.930Z,6368
2017-07-17T11:11:06.787Z,6844
2017-07-17T11:12:15.698Z,6952
2017-07-17T11:13:24.558Z,7300
2017-07-17T11:14:33.419Z,6156
2017-07-17T11:15:42.276Z,4628
2017-07-17T11:16:51.135Z,3372
2017-07-17T11:18:00.145Z,3340
2017-07-17T11:19:09.004Z,3816
2017-07-17T11:20:17.863Z,4252
2017-07-17T11:21:26.723Z,5232
2017-07-17T11:22:35.920Z,5688
2017-07-17T11:23:44.929Z,5892
2017-07-17T11:24:53.787Z,5740
2017-07-17T11:26:02.644Z,4972
2017-07-17T11:27:11.501Z,4856
2017-07-17T11:28:20.699Z,5484
2017-07-17T11:29:29.725Z,6824
2017-07-17T11:30:38.584Z,8060
2017-07-17T11:31:47.448Z,8236
2017-07-17T11:32:56.307Z,7744
2017-07-17T11:34:05.168Z,8292
2017-07-17T11:35:14.230Z,7736
2017-07-17T11:36:23.105Z,7284
2017-07-17T11:37:31.973Z,7088
2017-07-17T11:38:40.848Z,7560
2017-07-17T11:39:49.713Z,6352
2017-07-17T11:40:58.911Z,5688
2017-07-17T11:42:07.771Z,5160
2017-07-17T11:43:16.631Z,5152
2017-07-17T11:44:25.526Z,5388
2017-07-17T11:45:34.386Z,5940
2017-07-17T11:56:15.454Z,7624
2017-07-17T11:58:33.286Z,7640
2017-07-17T11:59:42.543Z,8416
2017-07-17T12:00:51.395Z,27264
2017-07-17T12:02:00.248Z,71072
2017-07-17T12:03:38.876Z,84448
2017-07-17T12:04:47.743Z,19680
2017-07-17T12:05:56.601Z,8576
2017-07-17T12:07:05.459Z,5472
2017-07-17T12:08:14.594Z,5912
2017-07-17T12:09:23.479Z,7024
2017-07-17T12:10:32.785Z,8644
2017-07-17T12:11:41.658Z,67328
2017-07-17T12:12:50.514Z,12048
2017-07-17T12:13:59.566Z,9368
2017-07-17T12:15:08.422Z,8872
2017-07-17T12:16:17.616Z,8468
2017-07-17T12:17:26.509Z,11568
2017-07-17T12:18:35.385Z,34048
2017-07-17T12:19:44.387Z,11576
2017-07-17T12:20:53.241Z,6880
2017-07-17T12:22:02.093Z,15244
2017-07-17T12:23:10.940Z,53344
2017-07-17T12:24:19.791Z,67136
2017-07-17T12:25:28.793Z,75360
2017-07-17T12:26:37.647Z,7188
2017-07-17T12:27:46.502Z,8864
2017-07-17T12:28:55.704Z,9340
2017-07-17T12:30:04.557Z,9684
2017-07-17T12:31:13.457Z,13180
2017-07-17T12:32:22.313Z,78400
2017-07-17T12:33:31.167Z,18464
2017-07-17T12:34:40.021Z,16156
2017-07-17T12:35:48.876Z,31232
2017-07-17T12:36:57.733Z,13548
2017-07-17T12:38:06.594Z,9124
2017-07-17T12:39:15.786Z,9312
2017-07-17T12:40:24.637Z,10800
2017-07-17T12:41:33.489Z,20288
2017-07-17T12:42:42.441Z,83712
2017-07-17T12:43:51.296Z,76064
2017-07-17T12:45:00.488Z,80704
2017-07-17T12:46:09.342Z,53568
2017-07-17T12:47:18.195Z,90912
2017-07-17T12:48:27.436Z,76480
2017-07-17T12:49:36.290Z,78272
2017-07-17T12:50:45.149Z,93280
2017-07-17T12:51:54.005Z,91040
2017-07-17T12:53:02.865Z,12208
2017-07-17T12:54:11.875Z,11552
2017-07-17T12:55:20.732Z,7980
2017-07-17T12:56:29.591Z,5800
2017-07-17T12:57:38.782Z,5944
2017-07-17T12:58:47.640Z,6740
2017-07-17T12:59:56.651Z,8728
2017-07-17T13:01:05.837Z,17472
2017-07-17T13:02:14.695Z,45600
2017-07-17T13:03:23.549Z,96992
2017-07-17T13:04:32.408Z,17600
2017-07-17T13:05:41.415Z,81920
2017-07-17T13:06:50.271Z,13928
2017-07-17T13:07:59.128Z,8820
2017-07-17T13:09:07.986Z,8396
2017-07-17T13:10:16.846Z,25280
2017-07-17T13:11:26.102Z,14300
2017-07-17T13:12:34.960Z,86144
2017-07-17T13:13:43.816Z,84768
2017-07-17T13:14:52.673Z,83968
2017-07-17T13:16:01.531Z,72384
2017-07-17T13:17:10.790Z,85984
2017-07-17T13:18:19.647Z,41856
2017-07-17T13:19:28.505Z,11768
2017-07-17T13:20:38.034Z,7012
2017-07-17T13:21:46.893Z,7256
2017-07-17T13:22:55.960Z,9536
2017-07-17T13:24:05.152Z,12436
2017-07-17T13:25:14.003Z,9228
2017-07-17T13:26:22.862Z,8436
2017-07-17T13:27:31.721Z,7352
2017-07-17T13:28:40.958Z,6340
2017-07-17T13:29:49.815Z,5664
2017-07-17T13:30:58.672Z,6048
2017-07-17T13:32:07.529Z,7132
2017-07-17T13:33:16.383Z,6836
2017-07-17T13:34:25.391Z,6600
2017-07-17T13:35:34.249Z,6056
2017-07-17T13:36:43.104Z,5968
2017-07-17T13:37:51.959Z,7044
2017-07-17T13:39:00.814Z,8868
2017-07-17T13:40:09.670Z,13788
2017-07-17T13:41:18.520Z,11460
2017-07-17T13:42:27.375Z,12156
2017-07-17T13:43:36.242Z,11572
2017-07-17T13:44:45.105Z,11040
2017-07-17T13:45:54.114Z,10032
2017-07-17T13:47:02.983Z,10292
2017-07-17T13:48:11.850Z,9660
2017-07-17T13:49:20.706Z,15272
2017-07-17T13:50:29.922Z,18496
2017-07-17T13:51:38.936Z,13604
2017-07-17T13:52:47.798Z,9452
2017-07-17T13:53:57.337Z,8236
2017-07-17T13:55:07.650Z,9120
2017-07-17T13:56:17.533Z,16512
2017-07-17T13:57:27.132Z,19552
2017-07-17T13:58:36.995Z,8656
2017-07-17T13:59:46.540Z,6804
2017-07-17T14:00:56.085Z,6656
2017-07-17T14:02:05.962Z,6704
2017-07-17T14:03:15.662Z,8128
2017-07-17T14:04:25.227Z,12072
2017-07-17T14:05:34.770Z,62752
2017-07-17T14:06:44.309Z,13316
2017-07-17T14:07:54.173Z,11832
2017-07-17T14:09:03.870Z,9692
2017-07-17T14:10:14.067Z,7572
2017-07-17T14:11:23.620Z,7016
2017-07-17T14:12:33.167Z,6884
2017-07-17T14:13:43.069Z,7460
2017-07-17T14:14:52.489Z,7516
2017-07-17T14:16:01.716Z,7504
2017-07-17T14:17:11.596Z,7444
2017-07-17T14:18:21.482Z,6596
2017-07-17T14:19:30.702Z,10692
2017-07-17T14:20:40.400Z,10484
2017-07-17T14:21:49.629Z,7100
2017-07-17T14:22:59.503Z,8188
2017-07-17T14:24:09.055Z,8096
2017-07-17T14:25:18.616Z,7084
2017-07-17T14:26:28.722Z,9612
2017-07-17T14:27:37.958Z,18464
2017-07-17T14:28:47.508Z,14880
2017-07-17T14:29:57.053Z,20480
2017-07-17T14:31:07.242Z,64160
2017-07-17T14:32:17.078Z,62592
2017-07-17T14:33:26.953Z,44544
2017-07-17T14:34:36.533Z,32672
2017-07-17T14:35:46.089Z,80032
2017-07-17T14:36:55.979Z,80128
2017-07-17T14:38:06.065Z,81856
2017-07-17T14:39:15.288Z,59328
2017-07-17T14:40:24.847Z,77248
2017-07-17T14:41:34.389Z,14116
2017-07-17T14:42:44.260Z,76864
2017-07-17T14:43:53.584Z,65536
2017-07-17T14:45:03.138Z,73088
2017-07-17T14:46:12.697Z,72416
2017-07-17T14:47:22.262Z,58944
2017-07-17T14:48:31.164Z,66144
2017-07-17T14:49:40.696Z,68480
2017-07-17T14:50:50.255Z,68768
2017-07-17T14:51:59.483Z,65536
2017-07-17T14:53:09.694Z,64128
2017-07-17T14:54:19.259Z,62176
2017-07-17T14:55:28.961Z,58208
2017-07-17T14:56:37.875Z,56384
2017-07-17T14:57:46.780Z,55936
2017-07-17T14:58:56.335Z,48352
2017-07-17T15:00:05.893Z,44640
2017-07-17T15:01:16.306Z,40128
2017-07-17T15:02:26.208Z,33344
2017-07-17T15:03:35.480Z,28256
2017-07-17T15:04:45.358Z,25024
2017-07-17T15:05:54.917Z,24992
2017-07-17T15:07:04.848Z,25312
2017-07-17T15:08:14.749Z,25952
2017-07-17T15:09:24.311Z,27616
2017-07-17T15:10:33.552Z,26304
2017-07-17T15:11:43.111Z,20864
2017-07-17T15:12:52.728Z,5568
2017-07-17T15:14:02.936Z,6516
2017-07-17T15:15:12.173Z,6296
2017-07-17T15:16:22.382Z,6024
2017-07-17T15:17:31.612Z,6196
2017-07-17T15:18:40.988Z,6732
2017-07-17T15:19:50.546Z,7128
2017-07-17T15:21:00.101Z,11848
2017-07-17T15:22:09.026Z,15424
2017-07-17T15:23:18.583Z,11224
2017-07-17T15:24:28.611Z,6612
2017-07-17T15:25:38.493Z,11516
2017-07-17T15:26:47.728Z,10636
2017-07-17T15:27:57.281Z,9024
2017-07-17T15:29:06.511Z,7812
2017-07-17T15:30:17.103Z,8224
2017-07-17T15:31:26.670Z,9536
2017-07-17T15:32:35.594Z,7872
2017-07-17T15:33:45.163Z,6660
2017-07-17T15:34:54.076Z,9876
2017-07-17T15:36:03.029Z,10432
2017-07-17T15:37:12.583Z,6056
2017-07-17T15:38:22.165Z,9148
2017-07-17T15:39:32.056Z,7004
2017-07-17T15:40:41.603Z,7012
2017-07-17T15:41:51.199Z,7504
2017-07-17T15:43:00.776Z,6668
2017-07-17T15:44:10.664Z,6792
2017-07-17T15:45:19.895Z,6720
2017-07-17T15:46:29.731Z,7200
2017-07-17T15:47:39.399Z,10140
2017-07-17T15:48:49.270Z,9688
2017-07-17T15:49:59.147Z,9960